< < Back
Terminal Aerodrome Forecast


Current Version              Previous Versions:   1  2  3  4  5  6  7  8  9  

Terminal Aerodrome Forecast

009
FTUS42 KFFC 290300 AAB
TAFATL
TAF AMD
KATL 290330Z 2904/3006 32007KT P6SM FEW070
     FM291600 33012G18KT P6SM SCT050
     FM300000 34007KT P6SM SKC=

Latest METAR

391
SAUS70 KWBC 290500 RRG
MTRATL
METAR KATL 290452Z 33008KT 10SM CLR 22/16 A2998 RMK AO2 SLP142 T02220156
403220222


USA.gov is the U.S. government's official web portal to all federal, state and local government web resources and services.